Time;durP1;ratioP1;P1;durP2;ratioP2;P2;SDS_P1;SDS_P2;PMS_P1;PMS_P2;Temp;Humidity;BMP_temperature;BMP_pressure;BME280_temperature;BME280_humidity;BME280_pressure;Samples;Min_cycle;Max_cycle;Signal;HPM_P1;HPM_P2
2023/07/01 04:04:53;;;;;;;1.30;1.20;;;15.20;99.90;;;;;;5818622;22;20516;-62
2023/07/01 04:07:21;;;;;;;3.53;2.83;;;15.30;99.90;;;;;;4996782;28;20824;-62
2023/07/01 04:09:50;;;;;;;1.77;1.67;;;15.30;99.90;;;;;;4996957;28;20259;-61
2023/07/01 04:12:16;;;;;;;3.60;2.13;;;15.40;99.90;;;;;;4996819;28;20399;-62
2023/07/01 04:14:42;;;;;;;1.73;1.63;;;15.40;99.90;;;;;;4996375;28;20462;-62
2023/07/01 04:17:08;;;;;;;2.77;2.57;;;15.50;99.90;;;;;;4996606;28;20388;-61
2023/07/01 04:19:33;;;;;;;2.00;1.50;;;15.70;99.90;;;;;;4996557;28;20407;-61
2023/07/01 04:21:59;;;;;;;1.80;1.70;;;15.90;99.90;;;;;;4996662;28;20242;-61
2023/07/01 04:24:24;;;;;;;2.03;1.70;;;16.00;99.90;;;;;;4995391;28;20534;-62
2023/07/01 04:26:52;;;;;;;1.93;1.70;;;16.20;99.90;;;;;;4996724;28;20179;-61
2023/07/01 04:29:17;;;;;;;1.90;1.80;;;16.40;99.90;;;;;;4995369;28;20214;-62
2023/07/01 04:31:43;;;;;;;2.20;2.03;;;16.50;99.90;;;;;;4996386;28;20478;-61
2023/07/01 04:34:08;;;;;;;3.50;1.97;;;16.60;99.90;;;;;;4995427;28;20226;-61
2023/07/01 04:36:34;;;;;;;2.37;2.17;;;16.80;99.90;;;;;;4995713;28;20286;-61
2023/07/01 04:38:59;;;;;;;3.07;2.30;;;16.80;99.90;;;;;;4996242;28;20176;-61
2023/07/01 04:41:25;;;;;;;1.83;1.73;;;17.00;99.90;;;;;;4996425;28;20179;-62
2023/07/01 04:43:51;;;;;;;2.33;2.13;;;17.20;99.90;;;;;;4995822;28;20645;-61
2023/07/01 04:46:16;;;;;;;2.43;2.10;;;17.50;99.90;;;;;;4996053;28;20210;-62
2023/07/01 04:48:42;;;;;;;2.30;2.10;;;17.80;99.90;;;;;;4996117;28;20185;-61
2023/07/01 04:51:07;;;;;;;2.10;1.90;;;18.00;99.90;;;;;;4994684;28;20186;-62
2023/07/01 04:53:33;;;;;;;1.83;1.73;;;18.10;99.90;;;;;;4995397;28;20197;-61
2023/07/01 04:55:58;;;;;;;2.07;1.73;;;18.20;99.90;;;;;;4995848;28;20215;-60
2023/07/01 04:58:24;;;;;;;1.90;1.80;;;18.20;99.90;;;;;;4995842;28;20643;-61
2023/07/01 05:00:50;;;;;;;1.60;1.50;;;18.30;99.90;;;;;;4995936;28;20514;-62
2023/07/01 05:03:16;;;;;;;2.30;2.10;;;18.30;99.90;;;;;;4995507;28;20558;-61
2023/07/01 05:05:41;;;;;;;2.27;2.17;;;18.30;99.90;;;;;;4995396;28;20488;-61
2023/07/01 05:08:07;;;;;;;2.60;2.00;;;18.30;99.90;;;;;;4994452;28;20179;-60
2023/07/01 05:10:33;;;;;;;2.40;1.80;;;18.30;99.90;;;;;;4995612;28;20187;-61
2023/07/01 05:12:58;;;;;;;1.80;1.70;;;18.30;99.90;;;;;;4995772;28;20183;-61
2023/07/01 05:15:24;;;;;;;2.13;1.60;;;18.30;99.90;;;;;;4995089;28;20203;-61
2023/07/01 05:17:49;;;;;;;1.63;1.53;;;18.40;99.90;;;;;;4995490;28;20537;-62
2023/07/01 05:20:15;;;;;;;2.23;2.13;;;18.60;99.90;;;;;;4995618;28;20624;-60
2023/07/01 05:22:41;;;;;;;1.83;1.73;;;18.70;99.90;;;;;;4995815;28;20178;-63
2023/07/01 05:25:07;;;;;;;1.70;1.60;;;18.80;99.90;;;;;;4995048;28;20191;-60
2023/07/01 05:27:32;;;;;;;2.30;2.10;;;18.90;99.90;;;;;;4995460;28;20179;-62
2023/07/01 05:29:58;;;;;;;2.97;1.50;;;19.10;99.90;;;;;;4995530;28;20407;-62
2023/07/01 05:32:24;;;;;;;1.43;1.33;;;19.10;99.90;;;;;;4995507;28;20179;-62
2023/07/01 05:34:49;;;;;;;1.00;1.00;;;19.30;99.90;;;;;;4993671;28;20299;-62
2023/07/01 05:37:15;;;;;;;1.07;0.97;;;19.60;99.90;;;;;;4995264;28;20256;-62
2023/07/01 05:39:41;;;;;;;1.40;1.30;;;20.00;99.90;;;;;;4993815;28;20176;-63
2023/07/01 05:42:06;;;;;;;1.43;1.33;;;20.60;99.90;;;;;;4995193;28;20179;-61
2023/07/01 05:44:32;;;;;;;1.70;1.60;;;21.00;99.90;;;;;;4994580;28;20198;-62
2023/07/01 05:46:58;;;;;;;1.33;1.23;;;21.30;99.90;;;;;;4995085;28;20223;-61
2023/07/01 05:49:24;;;;;;;1.03;1.03;;;21.40;99.90;;;;;;4994943;28;20180;-62
2023/07/01 05:51:49;;;;;;;1.13;1.10;;;21.50;99.90;;;;;;4993670;28;20421;-59
2023/07/01 05:54:15;;;;;;;1.20;1.20;;;21.50;99.90;;;;;;4993243;28;20180;-63
2023/07/01 05:56:41;;;;;;;1.20;1.20;;;21.50;99.90;;;;;;4994819;28;20213;-61
2023/07/01 05:59:06;;;;;;;1.57;1.47;;;21.40;99.90;;;;;;4994658;28;20176;-61
2023/07/01 06:01:32;;;;;;;1.40;1.30;;;21.40;99.90;;;;;;4994419;28;20180;-62
2023/07/01 06:03:58;;;;;;;1.13;1.10;;;21.30;99.90;;;;;;4994225;28;20529;-62
2023/07/01 06:06:23;;;;;;;1.00;1.00;;;21.30;99.90;;;;;;4994614;28;20721;-62
2023/07/01 06:08:49;;;;;;;1.83;1.47;;;21.40;99.90;;;;;;4994539;28;20180;-62
2023/07/01 06:11:15;;;;;;;1.30;1.20;;;21.50;99.90;;;;;;4994225;28;20264;-62
2023/07/01 06:13:45;;;;;;;1.47;1.37;;;21.50;99.90;;;;;;4994071;28;20656;-59
2023/07/01 06:16:10;;;;;;;1.30;1.30;;;21.50;99.90;;;;;;4994286;28;20267;-62
2023/07/01 06:18:36;;;;;;;1.37;1.37;;;21.60;99.90;;;;;;4994802;28;20920;-62
2023/07/01 06:21:06;;;;;;;1.47;1.40;;;21.60;99.90;;;;;;4994209;28;20175;-61
2023/07/01 06:23:32;;;;;;;1.33;1.23;;;21.70;99.90;;;;;;4994009;28;20182;-59
2023/07/01 06:25:58;;;;;;;1.10;1.10;;;21.70;99.30;;;;;;4991970;28;20534;-60
2023/07/01 06:28:23;;;;;;;0.97;0.97;;;21.80;99.00;;;;;;4990762;28;20485;-62
2023/07/01 06:30:49;;;;;;;1.27;1.00;;;21.90;99.50;;;;;;4992229;28;20238;-60
2023/07/01 06:33:14;;;;;;;0.87;0.83;;;22.10;98.60;;;;;;4993667;28;20597;-61
2023/07/01 06:35:41;;;;;;;1.20;1.10;;;22.20;97.70;;;;;;4993905;28;20201;-60
2023/07/01 06:38:07;;;;;;;1.10;1.10;;;22.30;97.10;;;;;;4994219;28;20254;-60
2023/07/01 06:40:33;;;;;;;1.03;0.83;;;22.30;96.40;;;;;;4993695;28;20846;-59
2023/07/01 06:42:58;;;;;;;0.83;0.83;;;22.30;96.10;;;;;;4988516;28;20734;-63
2023/07/01 06:45:25;;;;;;;0.90;0.87;;;22.30;96.00;;;;;;4975183;28;20211;-62
2023/07/01 06:47:50;;;;;;;2.30;1.27;;;22.40;95.30;;;;;;4974312;28;20238;-62
2023/07/01 06:50:16;;;;;;;0.80;0.80;;;22.40;94.60;;;;;;4974314;28;20500;-60
2023/07/01 06:52:41;;;;;;;1.00;0.90;;;22.50;95.00;;;;;;4975110;28;20233;-61
2023/07/01 06:55:08;;;;;;;1.10;1.10;;;22.50;94.70;;;;;;4973276;28;20204;-62
2023/07/01 06:57:36;;;;;;;0.80;0.80;;;22.50;94.80;;;;;;4974009;28;20254;-62
2023/07/01 07:00:03;;;;;;;1.27;1.17;;;22.60;93.80;;;;;;4972220;28;20419;-62
2023/07/01 07:02:28;;;;;;;0.93;0.90;;;22.70;93.90;;;;;;4973528;28;20411;-64
2023/07/01 07:04:54;;;;;;;0.90;0.90;;;22.70;94.70;;;;;;4972424;28;20505;-62
2023/07/01 07:07:19;;;;;;;1.00;1.00;;;22.80;95.20;;;;;;4974208;28;20259;-61
2023/07/01 07:09:45;;;;;;;1.73;1.07;;;22.90;93.70;;;;;;4974198;28;20208;-62
2023/07/01 07:12:11;;;;;;;0.90;0.90;;;23.00;93.30;;;;;;4974301;28;20227;-62
2023/07/01 07:14:36;;;;;;;0.80;0.80;;;23.10;92.80;;;;;;4974109;28;20662;-63
2023/07/01 07:17:02;;;;;;;0.90;0.90;;;23.20;92.70;;;;;;4972893;28;20212;-61
2023/07/01 07:19:27;;;;;;;1.27;0.90;;;23.20;92.10;;;;;;4974401;28;20173;-63
2023/07/01 07:21:53;;;;;;;1.40;1.30;;;23.30;93.00;;;;;;4974422;28;20618;-61
2023/07/01 07:24:18;;;;;;;1.30;1.20;;;23.30;92.50;;;;;;4973994;28;20214;-60
2023/07/01 07:26:57;;;;;;;1.40;1.30;;;23.40;92.30;;;;;;4974233;28;20258;-59
2023/07/01 07:29:24;;;;;;;1.47;1.37;;;23.60;92.70;;;;;;4974420;28;20176;-62
2023/07/01 07:31:50;;;;;;;0.90;0.90;;;24.10;93.60;;;;;;4974204;28;20765;-60
2023/07/01 07:34:16;;;;;;;1.00;1.00;;;24.60;92.70;;;;;;4973856;28;20403;-63
2023/07/01 07:36:42;;;;;;;2.33;2.13;;;25.10;92.50;;;;;;4974197;28;20459;-61
2023/07/01 07:39:10;;;;;;;1.30;1.20;;;25.70;91.20;;;;;;4974200;28;20172;-63
2023/07/01 07:41:35;;;;;;;1.10;1.10;;;26.40;89.60;;;;;;4972964;28;20387;-60
2023/07/01 07:44:01;;;;;;;1.67;1.53;;;27.20;88.70;;;;;;4972413;28;20391;-63
2023/07/01 07:46:26;;;;;;;1.00;1.00;;;28.10;84.90;;;;;;4974219;28;20195;-62
2023/07/01 07:48:52;;;;;;;1.40;1.30;;;29.20;84.20;;;;;;4974162;28;20658;-60
2023/07/01 07:51:18;;;;;;;1.17;1.17;;;30.10;82.50;;;;;;4974119;28;20579;-64
2023/07/01 07:53:43;;;;;;;1.80;1.70;;;30.90;76.50;;;;;;4974428;28;20184;-60
2023/07/01 07:56:09;;;;;;;1.03;1.03;;;31.60;73.10;;;;;;4974060;28;20290;-63
2023/07/01 07:58:34;;;;;;;1.40;1.40;;;32.20;71.00;;;;;;4975208;28;20638;-62
2023/07/01 08:01:00;;;;;;;1.80;1.70;;;32.90;69.10;;;;;;4977807;28;20255;-63
2023/07/01 08:03:25;;;;;;;1.33;1.27;;;33.30;65.80;;;;;;4977395;28;20180;-63
2023/07/01 08:05:51;;;;;;;1.67;1.57;;;33.80;63.80;;;;;;4977350;28;20697;-63
2023/07/01 08:08:16;;;;;;;2.13;2.03;;;33.80;61.60;;;;;;4977425;28;20567;-61
2023/07/01 08:10:45;;;;;;;2.20;1.87;;;33.50;61.60;;;;;;4977345;28;20172;-61
2023/07/01 08:13:12;;;;;;;2.33;1.70;;;33.50;63.20;;;;;;4977396;28;20196;-64
2023/07/01 08:15:39;;;;;;;2.80;2.60;;;33.80;65.00;;;;;;4977229;28;20814;-64
2023/07/01 08:18:05;;;;;;;1.60;1.50;;;34.10;62.30;;;;;;4977509;28;20865;-62
2023/07/01 08:20:30;;;;;;;1.50;1.40;;;34.40;60.20;;;;;;4977228;28;20407;-62
2023/07/01 08:22:56;;;;;;;1.67;1.57;;;34.70;59.80;;;;;;4977240;28;20177;-64
2023/07/01 08:25:21;;;;;;;1.50;1.40;;;35.10;60.60;;;;;;4976832;28;20197;-62
2023/07/01 08:27:47;;;;;;;1.50;1.40;;;35.00;58.10;;;;;;4977193;28;20176;-64
2023/07/01 08:30:13;;;;;;;1.30;1.30;;;35.00;57.70;;;;;;4977403;28;20574;-62
2023/07/01 08:32:40;;;;;;;1.70;1.60;;;34.80;57.50;;;;;;4977358;28;20256;-64
2023/07/01 08:35:06;;;;;;;1.60;1.50;;;34.20;57.30;;;;;;4976532;28;20203;-62
2023/07/01 08:37:32;;;;;;;1.83;1.73;;;33.30;58.80;;;;;;4977405;28;20436;-61
2023/07/01 08:39:57;;;;;;;1.10;1.10;;;32.80;60.80;;;;;;4977134;28;20438;-61
2023/07/01 08:42:30;;;;;;;1.43;1.33;;;33.00;59.70;;;;;;4976984;28;20168;-63
2023/07/01 08:44:57;;;;;;;1.27;1.17;;;33.20;58.60;;;;;;4976811;28;20239;-63
2023/07/01 08:47:25;;;;;;;3.03;2.57;;;33.00;57.90;;;;;;4977063;28;20428;-64
2023/07/01 08:49:55;;;;;;;1.67;1.57;;;32.70;58.70;;;;;;4976985;28;20415;-63
2023/07/01 08:52:22;;;;;;;1.93;1.73;;;32.70;59.40;;;;;;4976683;28;20412;-62
2023/07/01 08:54:48;;;;;;;1.63;1.53;;;32.50;60.40;;;;;;4976356;28;20428;-63
2023/07/01 08:57:14;;;;;;;1.60;1.50;;;32.60;58.70;;;;;;4976841;28;20782;-61
2023/07/01 08:59:42;;;;;;;1.60;1.53;;;32.30;58.30;;;;;;4976782;28;20404;-63
2023/07/01 09:02:08;;;;;;;1.90;1.80;;;32.30;58.40;;;;;;4976694;28;20639;-60
2023/07/01 09:04:37;;;;;;;1.70;1.60;;;32.20;59.40;;;;;;4976101;28;20430;-62
2023/07/01 09:07:03;;;;;;;1.93;1.83;;;32.50;59.70;;;;;;4976497;28;20600;-60
2023/07/01 09:09:29;;;;;;;1.10;1.10;;;32.60;58.20;;;;;;4976277;28;20474;-63
2023/07/01 09:11:55;;;;;;;2.03;1.47;;;32.50;58.50;;;;;;4976487;28;20419;-62
2023/07/01 09:14:20;;;;;;;1.80;1.70;;;32.30;58.20;;;;;;4976121;28;20193;-64
2023/07/01 09:16:46;;;;;;;1.70;1.60;;;32.50;58.70;;;;;;4976316;28;20207;-63
2023/07/01 09:19:16;;;;;;;1.50;1.40;;;33.00;59.10;;;;;;4976203;28;20626;-63
2023/07/01 09:21:43;;;;;;;1.30;1.30;;;33.50;57.50;;;;;;4976768;28;20172;-61
2023/07/01 09:24:10;;;;;;;1.67;1.60;;;33.30;57.50;;;;;;4975695;28;20404;-62
2023/07/01 09:26:36;;;;;;;2.00;1.90;;;32.90;57.60;;;;;;4976304;28;20408;-61
2023/07/01 09:29:15;;;;;;;1.90;1.80;;;32.50;57.50;;;;;;4976299;28;20412;-63
2023/07/01 09:31:49;;;;;;;1.77;1.67;;;32.20;57.30;;;;;;4976473;28;20396;-61
2023/07/01 09:34:16;;;;;;;1.40;1.30;;;32.10;57.00;;;;;;4975651;28;20478;-64
2023/07/01 09:36:42;;;;;;;2.30;1.80;;;32.20;57.30;;;;;;4975897;28;20455;-62
2023/07/01 09:39:08;;;;;;;2.17;1.97;;;32.60;56.80;;;;;;4975889;28;21033;-64
2023/07/01 09:41:34;;;;;;;1.30;1.30;;;33.00;56.10;;;;;;4975747;28;20408;-62
2023/07/01 09:44:00;;;;;;;2.07;1.70;;;33.40;55.40;;;;;;4975380;28;20234;-63
2023/07/01 09:46:42;;;;;;;1.73;1.67;;;33.90;54.40;;;;;;4975842;28;20626;-62
2023/07/01 09:49:08;;;;;;;1.33;1.33;;;34.50;53.50;;;;;;4975579;28;20422;-63
2023/07/01 09:51:44;;;;;;;0.80;0.80;;;34.80;52.50;;;;;;4975907;28;20416;-61
2023/07/01 09:54:26;;;;;;;1.40;1.40;;;34.60;51.60;;;;;;4975244;28;20461;-62
2023/07/01 09:56:54;;;;;;;1.60;1.50;;;34.20;50.90;;;;;;4975651;28;20538;-62
2023/07/01 09:59:20;;;;;;;1.30;1.20;;;33.90;51.00;;;;;;4975578;28;20408;-63
2023/07/01 10:01:47;;;;;;;1.50;1.40;;;33.80;51.40;;;;;;4975564;28;20538;-61
2023/07/01 10:04:13;;;;;;;1.73;1.63;;;33.60;51.40;;;;;;4975091;28;20404;-64
2023/07/01 10:06:42;;;;;;;1.80;1.67;;;33.70;51.40;;;;;;4975259;28;20432;-60
2023/07/01 10:09:07;;;;;;;1.80;1.70;;;33.80;51.20;;;;;;4975320;28;20661;-63
2023/07/01 10:11:35;;;;;;;1.90;1.80;;;33.90;51.50;;;;;;4975160;28;20411;-62
2023/07/01 10:14:03;;;;;;;2.30;2.10;;;34.00;50.80;;;;;;4974878;28;20167;-63
2023/07/01 10:16:29;;;;;;;1.70;1.60;;;33.80;50.40;;;;;;4975385;28;20467;-65
2023/07/01 10:18:55;;;;;;;1.87;1.63;;;33.30;50.20;;;;;;4974109;28;20916;-63
2023/07/01 10:21:23;;;;;;;1.90;1.80;;;33.20;49.50;;;;;;4974414;28;20662;-62
2023/07/01 10:23:49;;;;;;;1.63;1.53;;;33.30;50.90;;;;;;4974649;28;20227;-62
2023/07/01 10:26:36;;;;;;;1.60;1.50;;;33.60;50.10;;;;;;4975077;28;20838;-64
2023/07/01 10:29:31;;;;;;;1.77;1.67;;;33.90;50.30;;;;;;4975074;28;20428;-63
2023/07/01 10:32:09;;;;;;;1.80;1.70;;;34.20;48.90;;;;;;4965986;28;20419;-61
2023/07/01 10:34:52;;;;;;;4.47;2.10;;;34.30;49.30;;;;;;4974575;28;20438;-64
2023/07/01 10:37:22;;;;;;;2.13;2.03;;;34.30;48.70;;;;;;4975092;28;20439;-63
2023/07/01 10:39:48;;;;;;;1.63;1.53;;;34.10;48.30;;;;;;4975011;28;20412;-62
2023/07/01 10:42:32;;;;;;;2.00;1.90;;;34.10;49.30;;;;;;4974617;28;20412;-63
2023/07/01 10:45:13;;;;;;;2.63;2.43;;;33.90;49.10;;;;;;4974520;28;20191;-62
2023/07/01 10:47:46;;;;;;;1.40;1.30;;;33.50;49.70;;;;;;4974734;28;20810;-63
2023/07/01 10:50:13;;;;;;;1.63;1.53;;;33.00;50.70;;;;;;4974779;28;20418;-61
2023/07/01 10:53:11;;;;;;;1.60;1.50;;;32.80;50.10;;;;;;4974654;28;20404;-63
2023/07/01 10:55:39;;;;;;;1.77;1.67;;;32.60;50.20;;;;;;4962627;28;20510;-61
2023/07/01 10:58:21;;;;;;;1.40;1.30;;;32.30;49.70;;;;;;4974599;28;20419;-63
2023/07/01 11:00:48;;;;;;;1.80;1.70;;;32.00;50.40;;;;;;4974628;28;20377;-62
2023/07/01 11:03:33;;;;;;;1.50;1.40;;;31.70;50.20;;;;;;4974511;28;20390;-60
2023/07/01 11:06:03;;;;;;;1.63;1.53;;;31.40;50.90;;;;;;4974374;28;20558;-62
2023/07/01 11:08:30;;;;;;;2.03;1.90;;;31.10;51.00;;;;;;4974616;28;20774;-60
2023/07/01 11:10:55;;;;;;;1.43;1.33;;;30.90;51.80;;;;;;4974575;28;20494;-63
2023/07/01 11:13:21;;;;;;;2.00;1.90;;;30.80;52.30;;;;;;4974197;28;20842;-61
2023/07/01 11:16:04;;;;;;;1.77;1.67;;;30.70;52.70;;;;;;4974219;28;20932;-63
2023/07/01 11:18:45;;;;;;;1.43;1.33;;;30.50;53.80;;;;;;4974400;28;20405;-61
2023/07/01 11:21:13;;;;;;;1.57;1.47;;;30.50;54.20;;;;;;4974494;28;20884;-63
2023/07/01 11:23:42;;;;;;;1.70;1.60;;;30.60;54.60;;;;;;4974223;28;20415;-62
2023/07/01 11:26:09;;;;;;;1.20;1.10;;;30.60;53.30;;;;;;4974354;28;20410;-61
2023/07/01 11:28:35;;;;;;;1.63;1.20;;;30.50;52.30;;;;;;4974204;28;20444;-59
2023/07/01 11:31:18;;;;;;;1.70;1.60;;;30.40;52.40;;;;;;4974291;28;20809;-62
2023/07/01 11:33:54;;;;;;;2.60;1.90;;;30.10;52.00;;;;;;4977288;28;20426;-62
2023/07/01 11:36:38;;;;;;;1.57;1.47;;;29.90;53.10;;;;;;4977987;28;20458;-64
2023/07/01 11:39:06;;;;;;;1.50;1.30;;;29.70;53.40;;;;;;4978242;28;20374;-63
2023/07/01 11:41:32;;;;;;;1.33;1.23;;;29.50;53.60;;;;;;4978096;28;20406;-62
2023/07/01 11:43:58;;;;;;;1.80;1.70;;;29.20;53.90;;;;;;4977644;28;20394;-61
2023/07/01 11:46:34;;;;;;;2.13;1.67;;;28.90;54.60;;;;;;4978038;28;20408;-59
2023/07/01 11:49:17;;;;;;;1.50;1.40;;;28.60;55.30;;;;;;4977950;28;20176;-61
2023/07/01 11:51:54;;;;;;;1.60;1.50;;;28.40;55.40;;;;;;4978077;28;20735;-63
2023/07/01 11:54:24;;;;;;;1.53;1.27;;;28.30;55.90;;;;;;4977416;28;20764;-62
2023/07/01 11:57:06;;;;;;;1.50;1.40;;;28.10;56.60;;;;;;4977774;28;20458;-62
2023/07/01 11:59:34;;;;;;;1.47;1.37;;;28.10;56.30;;;;;;4977968;28;20438;-63
2023/07/01 12:02:00;;;;;;;1.90;1.50;;;28.10;56.30;;;;;;4977827;28;20386;-61
2023/07/01 12:04:27;;;;;;;2.80;2.60;;;28.10;56.50;;;;;;4977430;28;20402;-61
2023/07/01 12:07:07;;;;;;;2.37;1.97;;;28.30;58.50;;;;;;4977436;28;20409;-60
2023/07/01 12:09:32;;;;;;;1.50;1.40;;;28.40;58.40;;;;;;4977494;28;20914;-63
2023/07/01 12:11:58;;;;;;;3.47;2.00;;;28.70;58.00;;;;;;4978112;28;20464;-61
2023/07/01 12:14:24;;;;;;;1.70;1.60;;;28.80;57.80;;;;;;4976886;28;20462;-65
2023/07/01 12:16:51;;;;;;;1.93;1.70;;;28.90;58.50;;;;;;4977406;28;20602;-62
2023/07/01 12:19:18;;;;;;;1.33;1.23;;;28.80;57.90;;;;;;4977271;28;20422;-64
2023/07/01 12:21:44;;;;;;;1.20;1.10;;;28.80;57.30;;;;;;4977437;28;20415;-62
2023/07/01 12:24:23;;;;;;;1.67;1.57;;;28.60;57.80;;;;;;4982896;28;20401;-62
2023/07/01 12:26:54;;;;;;;2.27;1.83;;;28.60;58.00;;;;;;4994323;28;20407;-61
2023/07/01 12:29:21;;;;;;;1.80;1.70;;;28.40;58.50;;;;;;4996308;28;20408;-63
2023/07/01 12:31:47;;;;;;;1.63;1.53;;;28.30;57.30;;;;;;4996631;28;20382;-62
2023/07/01 12:34:13;;;;;;;2.47;1.40;;;28.20;57.50;;;;;;4996129;28;20887;-63
2023/07/01 12:36:39;;;;;;;1.40;1.30;;;28.00;57.30;;;;;;4996693;28;20450;-62
2023/07/01 12:39:07;;;;;;;1.30;1.20;;;28.00;57.60;;;;;;4996390;28;20503;-62
2023/07/01 12:41:35;;;;;;;1.37;1.20;;;27.90;57.80;;;;;;4996120;28;20756;-60
2023/07/01 12:44:02;;;;;;;2.07;1.50;;;27.80;58.00;;;;;;4995752;28;20403;-65
2023/07/01 12:46:27;;;;;;;1.17;1.13;;;27.50;58.40;;;;;;4996697;28;20401;-61
2023/07/01 12:48:53;;;;;;;1.37;1.30;;;27.20;59.00;;;;;;4996199;28;20404;-59
2023/07/01 12:51:19;;;;;;;2.47;2.00;;;26.90;59.60;;;;;;4996440;28;20187;-62
2023/07/01 12:53:44;;;;;;;1.40;1.40;;;26.70;60.40;;;;;;4995806;28;20216;-62
2023/07/01 12:56:10;;;;;;;1.10;1.00;;;26.40;62.10;;;;;;4996345;28;20206;-63
2023/07/01 12:58:40;;;;;;;1.10;1.10;;;26.20;62.20;;;;;;4985184;28;20543;-60
2023/07/01 13:01:06;;;;;;;1.10;1.10;;;26.20;63.10;;;;;;4977098;28;20179;-61
2023/07/01 13:03:35;;;;;;;1.20;1.10;;;26.10;63.00;;;;;;4988954;28;21031;-60
2023/07/01 13:06:10;;;;;;;0.83;0.83;;;26.10;63.70;;;;;;4996141;28;20205;-63
2023/07/01 13:08:36;;;;;;;0.77;0.77;;;26.10;63.10;;;;;;4997468;28;20525;-60
2023/07/01 13:11:02;;;;;;;1.63;1.20;;;26.00;63.60;;;;;;4995288;28;20395;-62
2023/07/01 13:13:28;;;;;;;1.00;1.00;;;25.90;64.20;;;;;;4996443;28;20428;-61
2023/07/01 13:15:53;;;;;;;0.97;0.97;;;25.90;64.90;;;;;;4998253;28;20799;-62
2023/07/01 13:18:23;;;;;;;1.30;1.20;;;25.90;65.70;;;;;;4996267;28;20178;-60
2023/07/01 13:20:49;;;;;;;3.47;2.53;;;25.90;65.70;;;;;;4989618;28;20178;-63
2023/07/01 13:23:15;;;;;;;2.23;2.13;;;25.80;66.50;;;;;;4976074;28;20835;-61
2023/07/01 13:25:40;;;;;;;1.90;1.33;;;25.70;66.30;;;;;;4976215;28;20200;-63
2023/07/01 13:28:06;;;;;;;1.27;1.17;;;25.60;66.10;;;;;;4976275;28;20204;-60
2023/07/01 13:30:45;;;;;;;1.00;1.00;;;25.40;67.70;;;;;;4976222;28;20195;-62
2023/07/01 13:33:11;;;;;;;1.10;1.10;;;25.40;67.50;;;;;;4976276;28;20179;-61
2023/07/01 13:35:38;;;;;;;1.70;1.00;;;25.50;68.10;;;;;;4981546;28;20468;-61
2023/07/01 13:38:08;;;;;;;0.77;0.77;;;25.70;69.00;;;;;;4995440;28;20170;-63
2023/07/01 13:40:40;;;;;;;0.80;0.80;;;26.00;68.40;;;;;;4995563;28;20433;-62
2023/07/01 13:43:13;;;;;;;0.90;0.90;;;26.10;67.60;;;;;;4995598;28;20379;-64
2023/07/01 13:45:39;;;;;;;0.80;0.80;;;26.20;66.90;;;;;;4995139;28;20801;-63
2023/07/01 13:48:04;;;;;;;0.97;0.97;;;26.20;67.40;;;;;;4995124;28;20440;-62
2023/07/01 13:50:30;;;;;;;0.90;0.90;;;26.20;67.70;;;;;;4987660;28;20649;-62
2023/07/01 13:52:58;;;;;;;2.80;1.60;;;26.20;68.30;;;;;;4975697;28;20179;-62
2023/07/01 13:55:23;;;;;;;0.97;0.97;;;26.10;68.00;;;;;;4974492;28;20266;-62
2023/07/01 13:57:53;;;;;;;0.90;0.90;;;26.00;68.00;;;;;;4975175;28;20875;-60
2023/07/01 14:00:22;;;;;;;0.80;0.80;;;26.00;68.60;;;;;;4975439;28;20171;-62
2023/07/01 14:02:47;;;;;;;1.63;1.23;;;25.90;68.90;;;;;;4975352;28;20406;-63
2023/07/01 14:05:13;;;;;;;1.40;1.33;;;25.70;69.20;;;;;;4981961;28;20463;-61
2023/07/01 14:07:39;;;;;;;1.10;0.93;;;25.60;69.50;;;;;;4994797;28;20177;-61
2023/07/01 14:10:06;;;;;;;0.90;0.90;;;25.50;70.40;;;;;;4994216;28;20233;-62
2023/07/01 14:12:32;;;;;;;0.70;0.70;;;25.40;70.50;;;;;;4992455;28;20181;-63
2023/07/01 14:14:58;;;;;;;0.73;0.73;;;25.30;71.20;;;;;;4974622;28;20434;-61
2023/07/01 14:17:23;;;;;;;3.57;1.30;;;25.10;71.50;;;;;;4975325;28;20489;-63
2023/07/01 14:19:56;;;;;;;0.83;0.83;;;24.90;72.10;;;;;;4975118;28;20184;-60
2023/07/01 14:22:23;;;;;;;1.17;0.90;;;24.80;72.60;;;;;;4975325;28;20168;-61
2023/07/01 14:24:49;;;;;;;0.73;0.73;;;24.70;72.70;;;;;;4974525;28;20518;-61
2023/07/01 14:27:26;;;;;;;1.20;1.10;;;24.60;72.90;;;;;;4976385;28;20455;-63
2023/07/01 14:29:52;;;;;;;1.70;0.90;;;24.50;73.60;;;;;;4994876;28;20182;-60
2023/07/01 14:32:19;;;;;;;3.57;1.13;;;24.40;74.70;;;;;;4994464;28;20828;-60
2023/07/01 14:34:44;;;;;;;1.07;1.00;;;24.20;75.40;;;;;;4994059;28;20199;-62
2023/07/01 14:37:14;;;;;;;1.50;1.40;;;24.10;76.20;;;;;;4994277;28;20462;-64
2023/07/01 14:39:47;;;;;;;1.10;0.97;;;24.10;76.80;;;;;;4994369;28;20176;-65
2023/07/01 14:42:25;;;;;;;1.20;1.20;;;24.00;77.70;;;;;;4990493;28;20429;-65
2023/07/01 14:44:51;;;;;;;0.93;0.93;;;24.00;78.40;;;;;;4974227;28;20435;-60
2023/07/01 14:47:16;;;;;;;1.13;1.00;;;24.00;77.80;;;;;;4974882;28;20414;-62
2023/07/01 14:49:42;;;;;;;0.80;0.70;;;24.10;77.70;;;;;;4974902;28;20698;-63
2023/07/01 14:52:09;;;;;;;1.10;1.10;;;24.10;78.00;;;;;;4974545;28;20176;-62
2023/07/01 14:54:35;;;;;;;0.80;0.80;;;24.20;78.80;;;;;;4974365;28;20215;-61
2023/07/01 14:57:01;;;;;;;0.90;0.67;;;24.20;78.40;;;;;;4980092;28;20432;-63
2023/07/01 14:59:26;;;;;;;0.70;0.70;;;24.30;78.50;;;;;;4993999;28;20945;-63
2023/07/01 15:01:57;;;;;;;0.80;0.80;;;24.40;78.90;;;;;;4994021;28;20180;-63
2023/07/01 15:04:23;;;;;;;1.00;0.93;;;24.40;78.60;;;;;;4993372;28;20232;-61
2023/07/01 15:06:48;;;;;;;1.10;0.87;;;24.40;78.70;;;;;;4979744;28;20434;-60
2023/07/01 15:09:14;;;;;;;1.10;1.10;;;24.50;78.80;;;;;;4974428;28;20184;-63
2023/07/01 15:11:39;;;;;;;1.40;1.00;;;24.50;79.10;;;;;;4974683;28;20665;-62
2023/07/01 15:14:05;;;;;;;0.83;0.83;;;24.60;78.90;;;;;;4972812;28;20239;-63
2023/07/01 15:16:30;;;;;;;1.43;1.33;;;24.70;78.70;;;;;;4981998;28;20203;-60
2023/07/01 15:18:56;;;;;;;0.90;0.90;;;24.70;78.60;;;;;;4984599;28;20578;-60
2023/07/01 15:21:22;;;;;;;1.10;1.00;;;24.60;79.10;;;;;;4982048;28;20633;-60
2023/07/01 15:23:47;;;;;;;1.57;1.47;;;24.60;80.00;;;;;;4983531;28;20172;-61
2023/07/01 15:26:13;;;;;;;1.43;1.33;;;24.60;78.80;;;;;;4981236;28;20240;-62
2023/07/01 15:28:39;;;;;;;0.80;0.80;;;24.60;79.20;;;;;;4984197;28;20191;-61
2023/07/01 15:31:05;;;;;;;1.30;1.20;;;24.60;79.00;;;;;;4981784;28;20177;-62
2023/07/01 15:33:32;;;;;;;1.57;1.33;;;24.70;79.10;;;;;;4982069;28;20441;-61
2023/07/01 15:35:58;;;;;;;1.03;1.03;;;24.70;80.20;;;;;;4982153;28;20455;-63
2023/07/01 15:38:23;;;;;;;1.13;0.90;;;24.70;79.40;;;;;;4983383;28;20816;-59
2023/07/01 15:40:49;;;;;;;0.77;0.70;;;24.60;79.10;;;;;;4988504;28;20255;-66
2023/07/01 15:43:17;;;;;;;1.20;1.20;;;24.50;80.00;;;;;;4987457;28;20177;-61
2023/07/01 15:45:45;;;;;;;3.00;1.40;;;24.50;80.60;;;;;;4973822;28;20207;-65
2023/07/01 15:48:11;;;;;;;0.97;0.97;;;24.30;82.00;;;;;;4973789;28;20424;-60
2023/07/01 15:50:37;;;;;;;1.00;0.90;;;24.30;82.30;;;;;;4974019;28;20459;-64
2023/07/01 15:53:02;;;;;;;0.80;0.80;;;24.20;83.40;;;;;;4978654;28;20897;-62
2023/07/01 15:55:28;;;;;;;0.70;0.70;;;24.00;84.50;;;;;;4988813;28;20211;-62
2023/07/01 15:57:54;;;;;;;1.00;0.70;;;23.80;85.70;;;;;;4985954;28;20211;-61
2023/07/01 16:00:19;;;;;;;0.50;0.50;;;23.60;86.80;;;;;;4972818;28;20786;-63
2023/07/01 16:02:45;;;;;;;0.60;0.60;;;23.40;87.70;;;;;;4973841;28;20576;-61
2023/07/01 16:05:14;;;;;;;0.70;0.70;;;23.30;88.30;;;;;;4973297;28;20204;-62
2023/07/01 16:08:03;;;;;;;2.17;1.47;;;23.20;89.20;;;;;;4973738;28;20180;-60
2023/07/01 16:10:30;;;;;;;0.80;0.80;;;23.10;90.20;;;;;;4991155;28;20404;-59
2023/07/01 16:12:58;;;;;;;0.50;0.50;;;23.10;90.90;;;;;;4993250;28;20393;-61
2023/07/01 16:15:28;;;;;;;1.40;1.10;;;23.00;91.00;;;;;;4992406;28;20444;-59
2023/07/01 16:17:57;;;;;;;1.60;0.93;;;23.00;91.10;;;;;;4977304;28;20410;-57
2023/07/01 16:20:33;;;;;;;0.77;0.77;;;22.80;91.20;;;;;;4976296;28;20400;-59
2023/07/01 16:23:02;;;;;;;0.97;0.80;;;22.80;91.40;;;;;;4994154;28;20792;-60
2023/07/01 16:25:28;;;;;;;0.70;0.70;;;22.70;92.40;;;;;;4976614;28;20954;-60
2023/07/01 16:27:55;;;;;;;0.60;0.60;;;22.50;93.70;;;;;;4977252;28;20415;-60
2023/07/01 16:30:21;;;;;;;0.73;0.73;;;22.30;96.00;;;;;;4977011;28;20190;-57
2023/07/01 16:32:49;;;;;;;0.73;0.70;;;21.90;99.30;;;;;;4981597;28;20916;-60
2023/07/01 16:35:36;;;;;;;0.70;0.70;;;21.70;99.90;;;;;;4977099;28;20422;-58
2023/07/01 16:38:04;;;;;;;1.53;0.90;;;21.50;99.90;;;;;;4983252;28;20423;-60
2023/07/01 16:40:46;;;;;;;0.83;0.83;;;21.30;99.90;;;;;;4990442;28;20394;-59
2023/07/01 16:43:13;;;;;;;0.80;0.80;;;21.10;99.90;;;;;;4996535;28;20430;-57
2023/07/01 16:45:39;;;;;;;0.90;0.90;;;20.80;99.90;;;;;;4983547;28;20469;-60
2023/07/01 16:48:23;;;;;;;1.10;0.80;;;20.70;99.90;;;;;;4977018;28;20423;-61
2023/07/01 16:50:58;;;;;;;0.70;0.70;;;20.60;99.90;;;;;;4976486;28;20428;-61
2023/07/01 16:53:24;;;;;;;0.93;0.93;;;20.60;99.90;;;;;;4987117;28;20402;-56
2023/07/01 16:55:53;;;;;;;1.00;1.00;;;20.60;99.90;;;;;;4978804;28;20466;-58